createdAt,value
2023-01-20T00:00:35.740Z,11.88
2023-01-20T00:01:38.902Z,13.32
2023-01-20T00:02:42.480Z,11.88
2023-01-20T00:03:52.767Z,12.02
2023-01-20T00:04:56.264Z,12.30
2023-01-20T00:05:58.855Z,12.63
2023-01-20T00:07:08.729Z,12.80
2023-01-20T00:08:11.214Z,13.00
2023-01-20T00:09:23.794Z,11.60
2023-01-20T00:10:26.734Z,12.70
2023-01-20T00:11:30.901Z,13.65
2023-01-20T00:12:54.713Z,14.27
2023-01-20T00:13:58.307Z,12.45
2023-01-20T00:15:08.741Z,13.88
2023-01-20T00:16:12.182Z,14.02
2023-01-20T00:17:21.733Z,14.43
2023-01-20T00:18:24.533Z,13.40
2023-01-20T00:19:34.789Z,13.30
2023-01-20T00:20:37.357Z,13.18
2023-01-20T00:21:40.813Z,13.82
2023-01-20T00:22:43.343Z,13.93
2023-01-20T00:23:47.491Z,13.75
2023-01-20T00:24:58.783Z,13.75
2023-01-20T00:26:04.817Z,14.60
2023-01-20T00:27:08.798Z,14.07
2023-01-20T00:28:11.366Z,14.10
2023-01-20T00:29:14.972Z,14.00
2023-01-20T00:30:24.758Z,14.68
2023-01-20T00:31:35.821Z,14.15
2023-01-20T00:32:39.220Z,13.13
2023-01-20T00:33:42.965Z,13.68
2023-01-20T00:34:45.434Z,14.52
2023-01-20T00:35:48.823Z,12.85
2023-01-20T00:36:57.756Z,13.77
2023-01-20T00:38:01.215Z,12.43
2023-01-20T00:39:04.401Z,15.57
2023-01-20T00:40:09.654Z,14.10
2023-01-20T00:41:12.769Z,13.75
2023-01-20T00:42:22.773Z,13.63
2023-01-20T00:43:25.272Z,13.32
2023-01-20T00:44:28.683Z,14.32
2023-01-20T00:45:31.189Z,14.23
2023-01-20T00:46:34.669Z,14.38
2023-01-20T00:47:43.754Z,15.23
2023-01-20T00:48:47.182Z,15.02
2023-01-20T00:49:49.688Z,15.18
2023-01-20T00:50:53.096Z,14.48
2023-01-20T00:51:55.593Z,14.73
2023-01-20T00:53:05.723Z,15.15
2023-01-20T00:54:14.735Z,15.25
2023-01-20T00:55:19.442Z,13.63
2023-01-20T00:56:21.871Z,15.57
2023-01-20T00:57:25.283Z,14.57
2023-01-20T00:58:27.817Z,14.93
2023-01-20T00:59:37.722Z,14.90
2023-01-20T01:00:40.285Z,14.68
2023-01-20T01:01:43.810Z,14.88
2023-01-20T01:02:54.919Z,15.23
2023-01-20T01:03:58.553Z,16.08
2023-01-20T01:05:01.063Z,16.48
2023-01-20T01:06:14.754Z,15.48
2023-01-20T01:07:17.319Z,15.90
2023-01-20T01:08:20.751Z,15.23
2023-01-20T01:09:23.229Z,14.68
2023-01-20T01:10:27.970Z,16.65
2023-01-20T01:11:36.735Z,16.52
2023-01-20T01:12:53.878Z,16.20
2023-01-20T01:13:57.019Z,14.32
2023-01-20T01:15:00.421Z,13.75
2023-01-20T01:16:02.969Z,14.48
2023-01-20T01:17:12.723Z,14.48
2023-01-20T01:18:15.215Z,15.05
2023-01-20T01:19:25.751Z,15.38
2023-01-20T01:20:29.169Z,14.43
2023-01-20T01:21:32.673Z,15.10
2023-01-20T01:22:41.751Z,14.77
2023-01-20T01:23:45.451Z,13.73
2023-01-20T01:24:48.063Z,13.75
2023-01-20T01:25:52.755Z,14.98
2023-01-20T01:27:02.755Z,14.88
2023-01-20T01:28:05.275Z,14.60
2023-01-20T01:29:14.756Z,15.18
2023-01-20T01:30:17.546Z,14.50
2023-01-20T01:31:22.082Z,15.02
2023-01-20T01:32:31.715Z,15.95
2023-01-20T01:33:35.239Z,16.30
2023-01-20T01:34:37.732Z,15.77
2023-01-20T01:35:41.165Z,16.25
2023-01-20T01:36:43.643Z,16.80
2023-01-20T01:37:53.747Z,16.83
2023-01-20T01:38:57.888Z,16.02
2023-01-20T01:40:02.671Z,16.25
2023-01-20T01:41:06.654Z,16.92
2023-01-20T01:42:12.435Z,17.27
2023-01-20T01:43:28.736Z,15.45
2023-01-20T01:44:33.632Z,14.95
2023-01-20T01:45:36.260Z,16.33
2023-01-20T01:46:40.191Z,16.45
2023-01-20T01:47:43.852Z,16.40
2023-01-20T01:48:54.745Z,15.77
2023-01-20T01:49:57.253Z,15.93
2023-01-20T01:51:03.372Z,16.52
2023-01-20T01:52:09.146Z,15.65
2023-01-20T01:53:18.747Z,16.05
2023-01-20T01:54:23.478Z,14.90
2023-01-20T01:55:33.733Z,15.60
2023-01-20T01:56:39.482Z,14.90
2023-01-20T01:57:42.102Z,16.70
2023-01-20T01:58:47.109Z,15.68
2023-01-20T01:59:55.768Z,15.32
2023-01-20T02:00:59.263Z,14.60
2023-01-20T02:02:09.781Z,13.50
2023-01-20T02:03:12.831Z,13.15
2023-01-20T02:04:16.900Z,13.32
2023-01-20T02:05:20.078Z,13.73
2023-01-20T02:06:24.711Z,14.35
2023-01-20T02:07:34.814Z,14.63
2023-01-20T02:08:38.565Z,14.68
2023-01-20T02:09:41.020Z,14.38
2023-01-20T02:10:44.422Z,15.43
2023-01-20T02:11:50.028Z,15.52
2023-01-20T02:13:06.880Z,14.40
2023-01-20T02:14:09.578Z,13.88
2023-01-20T02:15:13.515Z,14.45
2023-01-20T02:16:19.137Z,15.32
2023-01-20T02:17:26.466Z,15.48
2023-01-20T02:18:41.739Z,15.40
2023-01-20T02:20:10.803Z,15.00
2023-01-20T02:21:22.804Z,14.43
2023-01-20T02:22:31.233Z,14.93
2023-01-20T02:23:44.636Z,14.38
2023-01-20T02:25:07.046Z,14.02
2023-01-20T02:26:35.745Z,15.68
2023-01-20T02:27:53.054Z,13.73
2023-01-20T02:29:08.067Z,13.40
2023-01-20T02:30:23.244Z,14.20
2023-01-20T02:31:40.785Z,14.73
2023-01-20T02:32:49.688Z,14.10
2023-01-20T02:33:54.119Z,14.93
2023-01-20T02:35:01.845Z,14.45
2023-01-20T02:36:13.733Z,14.73
2023-01-20T02:37:18.730Z,13.30
2023-01-20T02:38:33.757Z,14.27
2023-01-20T02:39:41.805Z,13.48
2023-01-20T02:40:49.670Z,14.35
2023-01-20T02:42:02.750Z,14.70
2023-01-20T02:43:09.557Z,14.50
2023-01-20T02:44:15.269Z,15.27
2023-01-20T02:45:21.414Z,15.18
2023-01-20T02:46:33.789Z,13.77
2023-01-20T02:47:38.443Z,14.38
2023-01-20T02:48:45.599Z,14.38
2023-01-20T02:49:53.622Z,15.07
2023-01-20T02:51:01.195Z,14.73
2023-01-20T02:52:13.829Z,14.80
2023-01-20T02:53:18.648Z,14.50
2023-01-20T02:54:22.513Z,15.30
2023-01-20T02:55:28.145Z,15.70
2023-01-20T02:56:31.181Z,15.07
2023-01-20T02:57:42.743Z,14.55
2023-01-20T02:58:49.624Z,14.35
2023-01-20T02:59:54.057Z,15.70
2023-01-20T03:01:00.007Z,15.48
2023-01-20T03:02:05.106Z,14.45
2023-01-20T03:03:16.755Z,15.90
2023-01-20T03:04:25.003Z,15.07
2023-01-20T03:05:36.832Z,15.45
2023-01-20T03:06:44.149Z,14.13
2023-01-20T03:07:46.872Z,15.23
2023-01-20T03:08:58.865Z,15.05
2023-01-20T03:10:03.618Z,15.00
2023-01-20T03:11:14.760Z,15.23
2023-01-20T03:12:40.738Z,15.75
2023-01-20T03:14:04.707Z,15.05
2023-01-20T03:15:09.862Z,14.45
2023-01-20T03:16:19.774Z,15.30
2023-01-20T03:17:23.922Z,15.20
2023-01-20T03:18:26.754Z,14.57
2023-01-20T03:19:31.565Z,15.00
2023-01-20T03:20:34.287Z,15.30
2023-01-20T03:21:44.725Z,14.35
2023-01-20T03:22:47.256Z,14.13
2023-01-20T03:23:51.936Z,14.50
2023-01-20T03:24:55.087Z,14.57
2023-01-20T03:26:05.725Z,14.80
2023-01-20T03:27:14.764Z,14.93
2023-01-20T03:28:18.233Z,14.35
2023-01-20T03:29:26.724Z,14.43
2023-01-20T03:30:30.288Z,13.88
2023-01-20T03:31:42.969Z,15.00
2023-01-20T03:32:47.533Z,14.65
2023-01-20T03:33:51.201Z,15.23
2023-01-20T03:34:57.617Z,14.30
2023-01-20T03:36:00.122Z,14.27
2023-01-20T03:37:10.756Z,14.73
2023-01-20T03:38:19.763Z,14.80
2023-01-20T03:39:25.205Z,13.55
2023-01-20T03:40:30.936Z,13.77
2023-01-20T03:41:38.079Z,14.25
2023-01-20T03:42:49.754Z,13.93
2023-01-20T03:43:57.684Z,15.40
2023-01-20T03:45:07.218Z,15.10
2023-01-20T03:46:13.834Z,14.75
2023-01-20T03:47:19.098Z,15.27
2023-01-20T03:48:32.785Z,15.43
2023-01-20T03:49:37.662Z,13.88
2023-01-20T03:50:45.304Z,13.98
2023-01-20T03:51:52.877Z,14.55
2023-01-20T03:52:57.680Z,14.88
2023-01-20T03:54:08.743Z,13.50
2023-01-20T03:55:14.726Z,14.30
2023-01-20T03:56:25.753Z,14.15
2023-01-20T03:57:31.120Z,14.38
2023-01-20T03:58:42.743Z,14.55
2023-01-20T03:59:53.787Z,14.20
2023-01-20T04:00:57.882Z,14.00
2023-01-20T04:02:04.382Z,14.93
2023-01-20T04:03:09.531Z,14.57
2023-01-20T04:04:14.553Z,15.70
2023-01-20T04:05:24.791Z,14.02
2023-01-20T04:06:29.101Z,14.20
2023-01-20T04:07:33.023Z,14.25
2023-01-20T04:08:36.810Z,15.27
2023-01-20T04:09:41.334Z,15.23
2023-01-20T04:10:52.756Z,14.18
2023-01-20T04:11:56.301Z,15.65
2023-01-20T04:13:18.743Z,14.98
2023-01-20T04:14:28.774Z,13.95
2023-01-20T04:15:33.756Z,15.65
2023-01-20T04:16:38.094Z,14.90
2023-01-20T04:17:40.766Z,15.90
2023-01-20T04:18:44.995Z,15.35
2023-01-20T04:19:53.752Z,14.15
2023-01-20T04:21:05.815Z,14.98
2023-01-20T04:22:13.462Z,15.88
2023-01-20T04:23:19.833Z,14.98
2023-01-20T04:24:32.804Z,16.00
2023-01-20T04:25:36.274Z,15.00
2023-01-20T04:26:38.762Z,15.88
2023-01-20T04:27:42.153Z,16.90
2023-01-20T04:28:45.535Z,16.55
2023-01-20T04:29:54.814Z,16.65
2023-01-20T04:30:58.339Z,16.77
2023-01-20T04:32:02.072Z,15.73
2023-01-20T04:33:04.651Z,15.90
2023-01-20T04:34:08.633Z,16.35
2023-01-20T04:35:19.796Z,17.10
2023-01-20T04:36:23.242Z,16.05
2023-01-20T04:37:27.116Z,16.08
2023-01-20T04:38:30.612Z,14.93
2023-01-20T04:39:33.127Z,16.88
2023-01-20T04:40:43.236Z,17.05
2023-01-20T04:41:46.666Z,16.02
2023-01-20T04:42:49.216Z,19.15
2023-01-20T04:43:52.616Z,24.05
2023-01-20T04:44:55.092Z,24.42
2023-01-20T04:46:04.817Z,24.20
2023-01-20T04:47:13.742Z,18.77
2023-01-20T04:48:17.147Z,17.63
2023-01-20T04:49:19.591Z,16.75
2023-01-20T04:50:23.023Z,17.42
2023-01-20T04:51:25.488Z,16.52
2023-01-20T04:52:36.812Z,16.20
2023-01-20T04:53:39.305Z,15.82
2023-01-20T04:54:42.745Z,16.73
2023-01-20T04:55:45.263Z,16.77
2023-01-20T04:56:49.692Z,18.17
2023-01-20T04:57:59.754Z,17.00
2023-01-20T04:59:02.253Z,16.88
2023-01-20T05:00:06.293Z,17.58
2023-01-20T05:01:09.328Z,17.67
2023-01-20T05:02:19.889Z,16.42
2023-01-20T05:03:22.677Z,16.08
2023-01-20T05:04:26.043Z,17.45
2023-01-20T05:05:28.550Z,16.13
2023-01-20T05:06:31.998Z,15.80
2023-01-20T05:07:42.755Z,17.05
2023-01-20T05:08:52.781Z,16.45
2023-01-20T05:09:55.263Z,16.65
2023-01-20T05:10:58.694Z,16.27
2023-01-20T05:12:01.205Z,16.58
2023-01-20T05:13:10.762Z,16.88
2023-01-20T05:14:27.882Z,17.48
2023-01-20T05:15:30.345Z,17.50
2023-01-20T05:16:35.006Z,17.58
2023-01-20T05:17:37.671Z,17.23
2023-01-20T05:18:47.746Z,17.58
2023-01-20T05:19:50.217Z,17.58
2023-01-20T05:20:59.931Z,17.60
2023-01-20T05:22:02.423Z,18.30
2023-01-20T05:23:13.759Z,17.77
2023-01-20T05:24:17.188Z,17.50
2023-01-20T05:25:19.713Z,17.80
2023-01-20T05:26:30.736Z,18.50
2023-01-20T05:27:35.221Z,18.08
2023-01-20T05:28:38.639Z,17.98
2023-01-20T05:29:47.773Z,17.17
2023-01-20T05:30:52.081Z,16.60
2023-01-20T05:31:54.614Z,17.70
2023-01-20T05:32:58.043Z,17.45
2023-01-20T05:34:03.813Z,16.90
2023-01-20T05:35:13.109Z,17.15
2023-01-20T05:36:16.695Z,16.98
2023-01-20T05:37:19.323Z,16.50
2023-01-20T05:38:24.062Z,16.13
2023-01-20T05:39:32.743Z,16.27
2023-01-20T05:40:36.188Z,14.82
2023-01-20T05:41:38.696Z,15.38
2023-01-20T05:42:42.114Z,16.58
2023-01-20T05:43:44.644Z,15.80
2023-01-20T05:44:54.800Z,16.13
2023-01-20T05:45:57.298Z,16.30
2023-01-20T05:47:00.716Z,16.95
2023-01-20T05:48:03.402Z,15.20
2023-01-20T05:49:06.813Z,14.82
2023-01-20T05:50:15.764Z,15.50
2023-01-20T05:51:19.274Z,13.95
2023-01-20T05:52:28.777Z,14.57
2023-01-20T05:53:33.504Z,14.85
2023-01-20T05:54:36.024Z,15.80
2023-01-20T05:55:39.419Z,15.77
2023-01-20T05:56:41.914Z,15.45
2023-01-20T05:57:51.796Z,15.85
2023-01-20T05:58:56.460Z,15.60
2023-01-20T05:59:59.864Z,16.42
2023-01-20T06:01:06.058Z,15.63
2023-01-20T06:02:09.473Z,16.27
2023-01-20T06:03:18.775Z,15.63
2023-01-20T06:04:22.174Z,16.40
2023-01-20T06:05:30.765Z,16.60
2023-01-20T06:06:34.321Z,16.17
2023-01-20T06:07:37.044Z,16.60
2023-01-20T06:08:48.763Z,15.27
2023-01-20T06:09:51.251Z,16.38
2023-01-20T06:10:54.783Z,15.95
2023-01-20T06:12:03.769Z,15.27
2023-01-20T06:13:13.964Z,15.32
2023-01-20T06:14:29.804Z,15.65
2023-01-20T06:15:33.250Z,15.73
2023-01-20T06:16:35.747Z,15.30
2023-01-20T06:17:39.314Z,15.35
2023-01-20T06:18:42.239Z,15.85
2023-01-20T06:19:51.770Z,15.48
2023-01-20T06:20:57.817Z,15.43
2023-01-20T06:22:07.757Z,15.02
2023-01-20T06:23:10.220Z,14.35
2023-01-20T06:24:14.983Z,14.80
2023-01-20T06:25:17.890Z,14.80
2023-01-20T06:26:27.785Z,17.17
2023-01-20T06:27:30.324Z,15.48
2023-01-20T06:28:40.753Z,15.93
2023-01-20T06:29:43.241Z,16.38
2023-01-20T06:30:52.767Z,15.10
2023-01-20T06:31:56.283Z,15.25
2023-01-20T06:33:00.545Z,16.33
2023-01-20T06:34:03.008Z,15.77
2023-01-20T06:35:06.677Z,15.57
2023-01-20T06:36:19.755Z,15.55
2023-01-20T06:37:23.143Z,15.70
2023-01-20T06:38:26.255Z,15.30
2023-01-20T06:39:31.192Z,15.82
2023-01-20T06:40:33.707Z,15.50
2023-01-20T06:41:43.802Z,15.35
2023-01-20T06:42:53.967Z,14.38
2023-01-20T06:43:56.497Z,15.13
2023-01-20T06:44:59.914Z,15.18
2023-01-20T06:46:02.815Z,15.93
2023-01-20T06:47:12.773Z,16.20
2023-01-20T06:48:16.334Z,15.52
2023-01-20T06:49:20.175Z,15.82
2023-01-20T06:50:22.653Z,16.05
2023-01-20T06:51:26.069Z,14.63
2023-01-20T06:52:34.822Z,16.25
2023-01-20T06:53:38.417Z,15.43
2023-01-20T06:54:42.245Z,15.35
2023-01-20T06:55:45.631Z,14.90
2023-01-20T06:56:49.013Z,14.88
2023-01-20T06:57:57.785Z,14.95
2023-01-20T06:59:01.232Z,15.30
2023-01-20T07:00:04.953Z,15.35
2023-01-20T07:01:09.013Z,15.45
2023-01-20T07:02:19.894Z,16.45
2023-01-20T07:03:22.685Z,16.30
2023-01-20T07:04:26.170Z,16.15
2023-01-20T07:05:28.703Z,16.08
2023-01-20T07:06:33.026Z,16.75
2023-01-20T07:07:42.801Z,15.70
2023-01-20T07:08:46.233Z,17.38
2023-01-20T07:09:51.952Z,16.05
2023-01-20T07:10:55.385Z,16.13
2023-01-20T07:11:58.814Z,15.93
2023-01-20T07:13:07.767Z,16.25
2023-01-20T07:14:24.762Z,16.80
2023-01-20T07:15:33.989Z,15.45
2023-01-20T07:16:37.898Z,15.63
2023-01-20T07:17:40.427Z,16.98
2023-01-20T07:18:50.783Z,17.52
2023-01-20T07:19:54.174Z,17.23
2023-01-20T07:20:57.845Z,16.52
2023-01-20T07:22:01.263Z,16.88
2023-01-20T07:23:03.943Z,16.73
2023-01-20T07:24:13.805Z,16.08
2023-01-20T07:25:17.753Z,16.00
2023-01-20T07:26:28.772Z,17.75
2023-01-20T07:27:31.278Z,17.77
2023-01-20T07:28:35.082Z,16.83
2023-01-20T07:29:38.082Z,17.08
2023-01-20T07:30:41.574Z,16.98
2023-01-20T07:31:50.829Z,17.00
2023-01-20T07:32:55.272Z,16.65
2023-01-20T07:34:05.753Z,16.90
2023-01-20T07:35:09.506Z,18.00
2023-01-20T07:36:20.384Z,17.95
2023-01-20T07:37:23.822Z,17.45
2023-01-20T07:38:26.313Z,17.33
2023-01-20T07:39:29.754Z,17.70
2023-01-20T07:40:33.613Z,18.40
2023-01-20T07:41:43.852Z,18.30
2023-01-20T07:42:46.329Z,18.08
2023-01-20T07:43:50.671Z,17.98
2023-01-20T07:44:53.174Z,17.48
2023-01-20T07:45:57.108Z,18.52
2023-01-20T07:47:06.782Z,18.15
2023-01-20T07:48:10.338Z,18.85
2023-01-20T07:49:13.017Z,18.63
2023-01-20T07:50:16.549Z,17.73
2023-01-20T07:51:19.043Z,17.50
2023-01-20T07:52:28.785Z,19.13
2023-01-20T07:53:37.841Z,18.80
2023-01-20T07:54:41.274Z,17.98
2023-01-20T07:55:45.143Z,15.70
2023-01-20T07:56:48.603Z,16.55
2023-01-20T07:57:58.813Z,17.10
2023-01-20T07:59:01.672Z,16.58
2023-01-20T08:00:12.768Z,17.75
2023-01-20T08:01:17.244Z,18.10
2023-01-20T08:02:19.733Z,17.95
2023-01-20T08:03:24.150Z,18.50
2023-01-20T08:04:35.834Z,17.10
2023-01-20T08:05:38.423Z,17.25
2023-01-20T08:06:41.877Z,18.83
2023-01-20T08:07:44.349Z,17.73
2023-01-20T08:08:47.844Z,17.70
2023-01-20T08:09:57.821Z,18.65
2023-01-20T08:11:01.697Z,19.05
2023-01-20T08:12:05.239Z,18.67
2023-01-20T08:13:08.653Z,18.42
2023-01-20T08:14:18.961Z,18.38
2023-01-20T08:15:34.815Z,18.98
2023-01-20T08:16:38.308Z,18.45
2023-01-20T08:17:40.830Z,18.00
2023-01-20T08:18:44.653Z,19.50
2023-01-20T08:19:48.102Z,21.75
2023-01-20T08:20:56.831Z,21.58
2023-01-20T08:22:00.285Z,19.80
2023-01-20T08:23:02.810Z,21.42
2023-01-20T08:24:06.769Z,21.15
2023-01-20T08:25:09.597Z,19.90
2023-01-20T08:26:20.778Z,21.85
2023-01-20T08:27:24.198Z,21.52
2023-01-20T08:28:27.096Z,21.13
2023-01-20T08:29:31.309Z,18.30
2023-01-20T08:30:34.789Z,19.13
2023-01-20T08:31:44.952Z,19.00
2023-01-20T08:32:48.446Z,20.02
2023-01-20T08:33:54.874Z,21.23
2023-01-20T08:34:58.283Z,21.33
2023-01-20T08:36:04.386Z,20.83
2023-01-20T08:37:15.413Z,21.27
2023-01-20T08:38:18.836Z,21.23
2023-01-20T08:39:23.014Z,22.20
2023-01-20T08:40:25.576Z,20.92
2023-01-20T08:41:31.905Z,22.90
2023-01-20T08:42:40.872Z,23.98
2023-01-20T08:43:44.695Z,22.48
2023-01-20T08:44:48.420Z,23.25
2023-01-20T08:45:59.826Z,22.77
2023-01-20T08:47:03.635Z,25.58
2023-01-20T08:48:12.803Z,22.75
2023-01-20T08:49:17.836Z,27.42
2023-01-20T08:50:22.633Z,23.45
2023-01-20T08:51:27.275Z,21.33
2023-01-20T08:52:30.747Z,22.70
2023-01-20T08:53:39.804Z,22.55
2023-01-20T08:54:49.764Z,23.05
2023-01-20T08:55:57.311Z,21.75
2023-01-20T08:57:02.115Z,21.00
2023-01-20T08:58:04.821Z,19.63
2023-01-20T08:59:14.808Z,19.63
2023-01-20T09:00:19.178Z,20.42
2023-01-20T09:01:23.617Z,21.23
2023-01-20T09:02:27.459Z,20.48
2023-01-20T09:03:32.257Z,21.55
2023-01-20T09:04:44.872Z,20.73
2023-01-20T09:05:54.751Z,21.23
2023-01-20T09:06:58.133Z,20.52
2023-01-20T09:08:01.656Z,20.75
2023-01-20T09:09:10.806Z,22.20
2023-01-20T09:10:14.619Z,21.77
2023-01-20T09:11:18.174Z,22.67
2023-01-20T09:12:23.034Z,22.73
2023-01-20T09:13:31.962Z,22.42
2023-01-20T09:14:48.785Z,21.10
2023-01-20T09:15:54.385Z,20.58
2023-01-20T09:16:57.776Z,19.48
2023-01-20T09:18:00.430Z,20.27
2023-01-20T09:19:04.251Z,20.58
2023-01-20T09:20:14.753Z,19.70
2023-01-20T09:21:18.159Z,20.38
2023-01-20T09:22:20.619Z,20.45
2023-01-20T09:23:24.034Z,20.73
2023-01-20T09:24:47.867Z,20.08
2023-01-20T09:25:50.464Z,20.40
2023-01-20T09:27:00.879Z,19.13
2023-01-20T09:28:06.616Z,19.48
2023-01-20T09:29:11.657Z,20.83
2023-01-20T09:30:21.874Z,18.70
2023-01-20T09:31:26.312Z,21.45
2023-01-20T09:32:29.907Z,21.05
2023-01-20T09:33:32.501Z,21.17
2023-01-20T09:34:36.317Z,21.02
2023-01-20T09:35:45.884Z,21.90
2023-01-20T09:36:51.707Z,20.50
2023-01-20T09:38:19.768Z,20.40
2023-01-20T09:39:41.268Z,19.88
2023-01-20T09:41:07.733Z,19.63
2023-01-20T09:42:52.761Z,20.98
2023-01-20T09:44:00.739Z,20.20
2023-01-20T09:45:10.032Z,20.38
2023-01-20T09:46:17.183Z,21.35
2023-01-20T09:47:28.639Z,21.42
2023-01-20T09:49:04.781Z,22.25
2023-01-20T09:50:32.962Z,21.17
2023-01-20T09:51:57.756Z,21.67
2023-01-20T09:53:12.767Z,20.80
2023-01-20T09:54:25.799Z,21.80
2023-01-20T09:55:30.768Z,20.05
2023-01-20T09:56:38.773Z,21.48
2023-01-20T09:57:43.973Z,22.45
2023-01-20T09:58:50.484Z,23.23
2023-01-20T10:00:03.170Z,22.40
2023-01-20T10:01:10.861Z,21.67
2023-01-20T10:02:17.338Z,22.13
2023-01-20T10:03:26.047Z,22.38
2023-01-20T10:04:32.953Z,22.80
2023-01-20T10:05:44.795Z,22.35
2023-01-20T10:06:50.598Z,22.10
2023-01-20T10:07:55.700Z,21.27
2023-01-20T10:09:05.905Z,22.50
2023-01-20T10:10:20.887Z,22.20
2023-01-20T10:11:32.901Z,22.40
2023-01-20T10:12:39.867Z,21.52
2023-01-20T10:14:05.753Z,21.02
2023-01-20T10:15:18.821Z,22.40
2023-01-20T10:16:31.793Z,22.38
2023-01-20T10:17:37.089Z,21.95
2023-01-20T10:18:45.180Z,22.05
2023-01-20T10:19:51.486Z,22.10
2023-01-20T10:20:56.444Z,21.95
2023-01-20T10:22:10.832Z,21.25
2023-01-20T10:23:17.135Z,20.88
2023-01-20T10:24:22.936Z,21.98
2023-01-20T10:25:29.338Z,20.48
2023-01-20T10:26:40.784Z,21.80
2023-01-20T10:27:46.880Z,22.63
2023-01-20T10:28:54.605Z,20.92
2023-01-20T10:30:00.267Z,19.73
2023-01-20T10:31:11.888Z,17.40
2023-01-20T10:32:27.826Z,18.45
2023-01-20T10:33:33.237Z,19.35
2023-01-20T10:34:40.815Z,20.10
2023-01-20T10:35:46.736Z,19.70
2023-01-20T10:36:52.542Z,19.85
2023-01-20T10:38:04.755Z,20.17
2023-01-20T10:39:13.727Z,19.80
2023-01-20T10:40:20.154Z,19.30
2023-01-20T10:41:27.283Z,18.63
2023-01-20T10:42:30.754Z,20.45
2023-01-20T10:43:40.815Z,20.00
2023-01-20T10:44:44.826Z,19.88
2023-01-20T10:46:00.464Z,20.52
2023-01-20T10:47:16.374Z,20.20
2023-01-20T10:48:27.415Z,19.58
2023-01-20T10:49:48.955Z,19.35
2023-01-20T10:50:57.399Z,18.23
2023-01-20T10:52:08.618Z,19.38
2023-01-20T10:53:23.542Z,20.15
2023-01-20T10:54:37.917Z,20.35
2023-01-20T10:55:46.224Z,20.10
2023-01-20T10:56:53.759Z,19.92
2023-01-20T10:57:58.610Z,20.05
2023-01-20T10:59:04.856Z,20.33
2023-01-20T11:00:16.148Z,19.98
2023-01-20T11:01:21.578Z,19.73
2023-01-20T11:02:27.574Z,18.38
2023-01-20T11:03:32.131Z,18.75
2023-01-20T11:04:36.253Z,19.23
2023-01-20T11:05:45.914Z,18.80
2023-01-20T11:06:52.902Z,19.58
2023-01-20T11:07:56.815Z,21.02
2023-01-20T11:09:03.480Z,19.13
2023-01-20T11:10:21.915Z,19.73
2023-01-20T11:11:26.163Z,21.45
2023-01-20T11:12:58.911Z,20.30
2023-01-20T11:14:24.281Z,19.75
2023-01-20T11:15:37.895Z,19.00
2023-01-20T11:16:44.958Z,21.27
2023-01-20T11:18:15.746Z,20.83
2023-01-20T11:19:21.764Z,20.63
2023-01-20T11:20:25.540Z,20.77
2023-01-20T11:21:36.768Z,20.20
2023-01-20T11:22:39.380Z,20.20
2023-01-20T11:23:49.812Z,21.40
2023-01-20T11:24:56.079Z,21.15
2023-01-20T11:25:59.863Z,21.60
2023-01-20T11:27:07.518Z,21.15
2023-01-20T11:28:17.725Z,21.95
2023-01-20T11:29:35.923Z,20.65
2023-01-20T11:30:39.532Z,19.70
2023-01-20T11:31:44.239Z,20.38
2023-01-20T11:32:47.765Z,20.60
2023-01-20T11:33:59.646Z,19.67
2023-01-20T11:35:09.747Z,20.85
2023-01-20T11:36:25.919Z,21.65
2023-01-20T11:37:36.335Z,23.20
2023-01-20T11:38:43.775Z,96.10
2023-01-20T11:40:00.373Z,164.98
2023-01-20T11:41:03.982Z,52.72
2023-01-20T11:42:23.937Z,37.13
2023-01-20T11:43:33.920Z,23.70
2023-01-20T11:44:43.015Z,29.85
2023-01-20T11:45:47.357Z,33.03
2023-01-20T11:46:50.802Z,36.45
2023-01-20T11:48:24.783Z,27.77
2023-01-20T11:49:29.472Z,24.70
2023-01-20T11:50:37.476Z,21.38
2023-01-20T11:51:46.166Z,21.48
2023-01-20T11:52:54.813Z,22.20
2023-01-20T11:54:08.204Z,22.08
2023-01-20T11:55:13.804Z,25.08
2023-01-20T11:56:19.373Z,23.58
2023-01-20T11:57:21.923Z,23.35
2023-01-20T11:58:35.813Z,20.77
2023-01-20T11:59:55.777Z,22.05
2023-01-20T12:01:02.759Z,21.58
2023-01-20T12:02:23.369Z,21.10
2023-01-20T12:03:45.542Z,21.20
2023-01-20T12:05:09.842Z,21.13
2023-01-20T12:06:15.554Z,18.15
2023-01-20T12:07:23.007Z,18.02
2023-01-20T12:08:28.904Z,18.65
2023-01-20T12:09:34.700Z,17.65
2023-01-20T12:10:45.882Z,17.45
2023-01-20T12:11:53.907Z,18.10
2023-01-20T12:13:00.546Z,17.98
2023-01-20T12:14:31.785Z,17.42
2023-01-20T12:15:36.583Z,18.00
2023-01-20T12:16:46.868Z,18.35
2023-01-20T12:18:00.832Z,18.20
2023-01-20T12:19:05.932Z,18.90
2023-01-20T12:20:16.278Z,17.55
2023-01-20T12:21:19.813Z,17.80
2023-01-20T12:22:32.795Z,18.05
2023-01-20T12:23:45.719Z,17.27
2023-01-20T12:25:13.164Z,17.63
2023-01-20T12:26:23.799Z,18.13
2023-01-20T12:27:29.870Z,18.27
2023-01-20T12:28:36.985Z,18.50
2023-01-20T12:29:44.920Z,17.77
2023-01-20T12:30:58.948Z,17.52
2023-01-20T12:32:01.628Z,18.17
2023-01-20T12:33:05.155Z,17.88
2023-01-20T12:34:13.114Z,18.42
2023-01-20T12:35:17.926Z,18.15
2023-01-20T12:36:34.974Z,19.20
2023-01-20T12:37:45.812Z,19.17
2023-01-20T12:39:01.152Z,19.33
2023-01-20T12:40:19.512Z,18.15
2023-01-20T12:41:31.269Z,19.77
2023-01-20T12:42:48.825Z,19.90
2023-01-20T12:43:56.246Z,19.80
2023-01-20T12:45:00.142Z,19.38
2023-01-20T12:46:09.713Z,20.45
2023-01-20T12:47:26.798Z,20.27
2023-01-20T12:48:38.986Z,20.50
2023-01-20T12:49:53.728Z,20.88
2023-01-20T12:51:04.658Z,20.73
2023-01-20T12:52:27.896Z,20.15
2023-01-20T12:53:52.025Z,20.73
2023-01-20T12:55:07.843Z,20.38
2023-01-20T12:56:17.350Z,20.55
2023-01-20T12:57:27.838Z,20.65
2023-01-20T12:58:46.824Z,19.45
2023-01-20T12:59:53.147Z,19.75
2023-01-20T13:01:06.317Z,20.50
2023-01-20T13:02:18.805Z,19.35
2023-01-20T13:03:45.841Z,20.17
2023-01-20T13:05:04.143Z,20.15
2023-01-20T13:06:23.324Z,19.65
2023-01-20T13:07:47.531Z,21.05
2023-01-20T13:09:00.897Z,20.58
2023-01-20T13:10:22.753Z,20.85
2023-01-20T13:11:33.662Z,21.52
2023-01-20T13:12:39.943Z,20.52
2023-01-20T13:13:56.925Z,22.00
2023-01-20T13:15:22.808Z,19.65
2023-01-20T13:16:37.973Z,20.60
2023-01-20T13:17:44.189Z,20.13
2023-01-20T13:18:56.794Z,20.48
2023-01-20T13:20:08.017Z,20.73
2023-01-20T13:21:23.959Z,20.30
2023-01-20T13:22:27.733Z,19.77
2023-01-20T13:23:32.253Z,21.40
2023-01-20T13:24:36.526Z,21.45
2023-01-20T13:25:41.253Z,21.13
2023-01-20T13:26:51.827Z,20.92
2023-01-20T13:27:55.614Z,20.90
2023-01-20T13:29:00.619Z,20.83
2023-01-20T13:30:04.637Z,20.52
2023-01-20T13:31:30.004Z,21.67
2023-01-20T13:32:43.827Z,21.85
2023-01-20T13:33:46.549Z,21.98
2023-01-20T13:34:49.974Z,21.05
2023-01-20T13:35:52.738Z,19.42
2023-01-20T13:37:20.819Z,19.67
2023-01-20T13:38:25.294Z,20.98
2023-01-20T13:39:41.795Z,20.17
2023-01-20T13:40:49.337Z,20.08
2023-01-20T13:41:59.811Z,19.63
2023-01-20T13:43:09.893Z,19.95
2023-01-20T13:44:26.964Z,20.75
2023-01-20T13:45:30.383Z,20.88
2023-01-20T13:46:45.252Z,21.13
2023-01-20T13:47:59.995Z,20.38
2023-01-20T13:49:27.970Z,19.92
2023-01-20T13:50:32.734Z,20.15
2023-01-20T13:51:48.101Z,20.65
2023-01-20T13:53:05.375Z,21.08
2023-01-20T13:54:30.789Z,20.10
2023-01-20T13:55:55.876Z,20.05
2023-01-20T13:57:14.251Z,19.40
2023-01-20T13:58:20.425Z,20.25
2023-01-20T13:59:24.223Z,21.83
2023-01-20T14:00:27.987Z,46.90
2023-01-20T14:01:38.037Z,30.48
2023-01-20T14:02:40.936Z,25.35
2023-01-20T14:03:44.804Z,29.00
2023-01-20T14:04:47.337Z,28.35
2023-01-20T14:05:52.200Z,27.70
2023-01-20T14:07:01.828Z,24.10
2023-01-20T14:08:05.834Z,22.67
2023-01-20T14:09:12.028Z,21.73
2023-01-20T14:10:15.071Z,19.98
2023-01-20T14:11:20.804Z,20.98
2023-01-20T14:12:29.862Z,20.92
2023-01-20T14:13:34.623Z,21.58
2023-01-20T14:14:58.865Z,21.48
2023-01-20T14:16:02.388Z,20.73
2023-01-20T14:17:11.025Z,22.55
2023-01-20T14:18:24.860Z,22.83
2023-01-20T14:19:32.282Z,22.98
2023-01-20T14:20:37.317Z,22.95
2023-01-20T14:21:41.796Z,22.80
2023-01-20T14:22:44.375Z,22.67
2023-01-20T14:23:54.842Z,22.73
2023-01-20T14:24:59.176Z,21.52
2023-01-20T14:26:04.039Z,22.83
2023-01-20T14:27:08.473Z,26.63
2023-01-20T14:28:20.616Z,24.42
2023-01-20T14:29:31.893Z,23.45
2023-01-20T14:30:34.606Z,22.52
2023-01-20T14:31:40.853Z,21.35
2023-01-20T14:32:43.514Z,21.33